Time;durP1;ratioP1;P1;durP2;ratioP2;P2;SDS_P1;SDS_P2;PMS_P1;PMS_P2;Temp;Humidity;BMP_temperature;BMP_pressure;BME280_temperature;BME280_humidity;BME280_pressure;Samples;Min_cycle;Max_cycle;Signal;HPM_P1;HPM_P2
2022/03/07 00:00:32;;;;;;;9.07;7.00;;;;;;;;;;4978054;28;20286;-73
2022/03/07 00:02:57;;;;;;;10.07;6.97;;;;;;;;;;4983939;28;20234;-72
2022/03/07 00:05:23;;;;;;;8.73;7.40;;;;;;;;;;4974754;28;20233;-73
2022/03/07 00:07:53;;;;;;;7.90;7.10;;;;;;;;;;5003573;28;20308;-74
2022/03/07 00:10:18;;;;;;;8.37;7.30;;;;;;;;;;4973558;28;20655;-73
2022/03/07 00:12:46;;;;;;;7.80;7.00;;;;;;;;;;4973703;28;20217;-72
2022/03/07 00:15:12;;;;;;;7.53;6.83;;;;;;;;;;4958110;28;20328;-72
2022/03/07 00:17:41;;;;;;;8.87;7.27;;;;;;;;;;4989100;28;20283;-71
2022/03/07 00:20:07;;;;;;;8.37;6.97;;;;;;;;;;4971646;28;20308;-72
2022/03/07 00:22:32;;;;;;;7.80;6.60;;;;;;;;;;4967716;28;20225;-73
2022/03/07 00:24:58;;;;;;;9.20;6.40;;;;;;;;;;4951486;28;20247;-74
2022/03/07 00:27:23;;;;;;;7.43;6.40;;;;;;;;;;4957429;28;20363;-74
2022/03/07 00:29:51;;;;;;;7.07;6.37;;;;;;;;;;4975600;28;20248;-72
2022/03/07 00:32:17;;;;;;;8.50;6.70;;;;;;;;;;4957062;28;20216;-72
2022/03/07 00:34:42;;;;;;;7.93;7.13;;;;;;;;;;4947873;28;20597;-71
2022/03/07 00:37:10;;;;;;;9.17;6.97;;;;;;;;;;4979914;28;20636;-72
2022/03/07 00:39:36;;;;;;;10.10;6.87;;;;;;;;;;4959575;28;20366;-72
2022/03/07 00:42:02;;;;;;;9.60;7.37;;;;;;;;;;4965067;28;20225;-72
2022/03/07 00:44:30;;;;;;;9.60;7.27;;;;;;;;;;5004946;28;20866;-72
2022/03/07 00:47:00;;;;;;;9.70;7.63;;;;;;;;;;4958989;28;20721;-72
2022/03/07 00:49:26;;;;;;;8.20;6.63;;;;;;;;;;4968659;28;20224;-71
2022/03/07 00:51:55;;;;;;;9.10;6.73;;;;;;;;;;4976021;28;20288;-71
2022/03/07 00:54:23;;;;;;;9.13;6.70;;;;;;;;;;4958355;28;20228;-73
2022/03/07 00:56:53;;;;;;;8.53;6.23;;;;;;;;;;4977867;28;20259;-74
2022/03/07 00:59:22;;;;;;;8.97;6.57;;;;;;;;;;4974529;28;20713;-72
2022/03/07 01:01:48;;;;;;;8.43;6.30;;;;;;;;;;4974457;28;20559;-72
2022/03/07 01:04:16;;;;;;;10.83;7.17;;;;;;;;;;4989750;28;20229;-72
2022/03/07 01:06:43;;;;;;;9.50;7.13;;;;;;;;;;4968828;28;20304;-71
2022/03/07 01:09:09;;;;;;;7.40;6.40;;;;;;;;;;4972387;28;20225;-72
2022/03/07 01:11:37;;;;;;;9.50;6.90;;;;;;;;;;4946860;28;20221;-72
2022/03/07 01:14:05;;;;;;;9.90;6.67;;;;;;;;;;4978823;28;20231;-72
2022/03/07 01:16:31;;;;;;;8.73;6.70;;;;;;;;;;4994227;28;20225;-74
2022/03/07 01:18:59;;;;;;;10.63;7.53;;;;;;;;;;4963498;28;20232;-71
2022/03/07 01:21:24;;;;;;;8.87;7.17;;;;;;;;;;5004157;28;20221;-71
2022/03/07 01:23:50;;;;;;;9.33;7.43;;;;;;;;;;4950564;28;20327;-70
2022/03/07 01:26:20;;;;;;;7.90;7.10;;;;;;;;;;4947609;28;20233;-70
2022/03/07 01:28:48;;;;;;;8.73;7.10;;;;;;;;;;4994616;28;20220;-72
2022/03/07 01:31:14;;;;;;;8.40;7.33;;;;;;;;;;5008437;28;20225;-72
2022/03/07 01:33:42;;;;;;;8.00;7.20;;;;;;;;;;4991325;28;20298;-74
2022/03/07 01:36:07;;;;;;;11.00;7.07;;;;;;;;;;5022896;28;20224;-74
2022/03/07 01:38:35;;;;;;;8.80;7.40;;;;;;;;;;4983660;28;20750;-71
2022/03/07 01:41:03;;;;;;;8.70;6.97;;;;;;;;;;4998349;28;20243;-71
2022/03/07 01:43:29;;;;;;;9.47;8.17;;;;;;;;;;4955947;28;20233;-72
2022/03/07 01:45:55;;;;;;;7.87;7.07;;;;;;;;;;4956127;28;20239;-73
2022/03/07 01:48:21;;;;;;;12.30;8.43;;;;;;;;;;4947691;28;20221;-72
2022/03/07 01:50:46;;;;;;;8.10;7.27;;;;;;;;;;5015613;28;20255;-74
2022/03/07 01:53:14;;;;;;;8.33;7.50;;;;;;;;;;4957322;28;20290;-70
2022/03/07 01:55:39;;;;;;;7.83;7.00;;;;;;;;;;4987306;28;20221;-71
2022/03/07 01:58:09;;;;;;;8.37;7.47;;;;;;;;;;4947083;28;20691;-72
2022/03/07 02:00:35;;;;;;;8.63;7.17;;;;;;;;;;4962234;28;20248;-73
2022/03/07 02:03:01;;;;;;;11.20;7.60;;;;;;;;;;4957044;28;20239;-72
2022/03/07 02:05:34;;;;;;;8.70;7.50;;;;;;;;;;4978626;28;20233;-72
2022/03/07 02:08:06;;;;;;;9.20;7.57;;;;;;;;;;4985940;28;20224;-71
2022/03/07 02:10:43;;;;;;;10.30;7.53;;;;;;;;;;4961370;28;20283;-72
2022/03/07 02:13:16;;;;;;;8.17;6.83;;;;;;;;;;4977810;28;20240;-71
2022/03/07 02:15:58;;;;;;;9.77;7.47;;;;;;;;;;4954617;28;20351;-71
2022/03/07 02:18:30;;;;;;;8.90;7.43;;;;;;;;;;4977827;28;20309;-70
2022/03/07 02:21:19;;;;;;;8.50;7.60;;;;;;;;;;4962945;28;20224;-72
2022/03/07 02:24:09;;;;;;;7.87;7.03;;;;;;;;;;4994877;28;20225;-71
2022/03/07 02:26:40;;;;;;;9.03;6.90;;;;;;;;;;4960967;28;20639;-72
2022/03/07 02:29:13;;;;;;;7.73;6.97;;;;;;;;;;4977329;28;20217;-71
2022/03/07 02:31:41;;;;;;;8.43;7.20;;;;;;;;;;4975497;28;20225;-72
2022/03/07 02:34:10;;;;;;;10.07;7.27;;;;;;;;;;4975587;28;20229;-71
2022/03/07 02:36:38;;;;;;;8.20;7.27;;;;;;;;;;4978351;28;20315;-71
2022/03/07 02:39:05;;;;;;;8.47;7.20;;;;;;;;;;4946727;28;20225;-71
2022/03/07 02:41:34;;;;;;;9.17;7.47;;;;;;;;;;4970353;28;20236;-71
2022/03/07 02:44:00;;;;;;;9.77;7.83;;;;;;;;;;4962473;28;20737;-71
2022/03/07 02:46:25;;;;;;;10.10;7.63;;;;;;;;;;4964112;28;20296;-71
2022/03/07 02:48:53;;;;;;;8.97;7.60;;;;;;;;;;4953300;28;20300;-72
2022/03/07 02:51:19;;;;;;;9.77;7.80;;;;;;;;;;4944083;28;20213;-71
2022/03/07 02:53:44;;;;;;;11.07;7.43;;;;;;;;;;4967468;28;20225;-71
2022/03/07 02:56:12;;;;;;;9.47;7.30;;;;;;;;;;4977619;28;20788;-73
2022/03/07 02:58:39;;;;;;;8.13;7.33;;;;;;;;;;4947846;28;20248;-73
2022/03/07 03:01:06;;;;;;;8.93;8.03;;;;;;;;;;4967170;28;20232;-72
2022/03/07 03:03:34;;;;;;;10.10;7.90;;;;;;;;;;4947433;28;20319;-72
2022/03/07 03:05:59;;;;;;;10.13;8.03;;;;;;;;;;4961651;28;20231;-71
2022/03/07 03:08:27;;;;;;;8.30;7.43;;;;;;;;;;4987320;28;20579;-71
2022/03/07 03:11:01;;;;;;;9.13;7.37;;;;;;;;;;4949563;28;20218;-71
2022/03/07 03:13:26;;;;;;;9.63;7.63;;;;;;;;;;4951106;28;20602;-71
2022/03/07 03:15:55;;;;;;;10.03;7.67;;;;;;;;;;4971391;28;20225;-70
2022/03/07 03:18:20;;;;;;;8.43;7.50;;;;;;;;;;4984888;28;20225;-71
2022/03/07 03:20:47;;;;;;;8.73;7.00;;;;;;;;;;4960324;28;20221;-73
2022/03/07 03:23:22;;;;;;;7.87;7.07;;;;;;;;;;4974483;28;20260;-71
2022/03/07 03:25:48;;;;;;;10.63;7.87;;;;;;;;;;4976385;28;20263;-71
2022/03/07 03:28:13;;;;;;;10.20;8.00;;;;;;;;;;4958178;28;20221;-75
2022/03/07 03:30:41;;;;;;;10.33;7.97;;;;;;;;;;4960844;28;20229;-71
2022/03/07 03:33:09;;;;;;;8.47;7.30;;;;;;;;;;4974490;28;20225;-73
2022/03/07 03:35:37;;;;;;;8.93;7.60;;;;;;;;;;4981076;28;20879;-71
2022/03/07 03:38:04;;;;;;;9.87;8.27;;;;;;;;;;4976377;28;20720;-71
2022/03/07 03:40:31;;;;;;;10.43;8.17;;;;;;;;;;4983109;28;20286;-72
2022/03/07 03:42:59;;;;;;;13.03;8.90;;;;;;;;;;4958882;28;20220;-72
2022/03/07 03:45:27;;;;;;;10.40;8.60;;;;;;;;;;4942307;28;20217;-72
2022/03/07 03:47:58;;;;;;;10.17;8.67;;;;;;;;;;4983453;28;20229;-72
2022/03/07 03:50:28;;;;;;;11.47;9.50;;;;;;;;;;4974303;28;20232;-72
2022/03/07 03:52:53;;;;;;;11.67;9.20;;;;;;;;;;4975235;28;20304;-71
2022/03/07 03:55:23;;;;;;;12.17;8.83;;;;;;;;;;4941609;28;20712;-73
2022/03/07 03:57:51;;;;;;;13.30;9.00;;;;;;;;;;4991135;28;20631;-73
2022/03/07 04:00:23;;;;;;;11.80;8.53;;;;;;;;;;4966537;28;20233;-71
2022/03/07 04:02:54;;;;;;;11.60;8.77;;;;;;;;;;4967631;28;20361;-72
2022/03/07 04:05:19;;;;;;;10.03;8.63;;;;;;;;;;4942528;28;20228;-71
2022/03/07 04:07:45;;;;;;;9.33;8.37;;;;;;;;;;4975943;28;20217;-71
2022/03/07 04:10:18;;;;;;;9.67;8.40;;;;;;;;;;4990019;28;20784;-72
2022/03/07 04:12:46;;;;;;;10.83;8.87;;;;;;;;;;4980523;28;20220;-71
2022/03/07 04:15:14;;;;;;;9.83;8.63;;;;;;;;;;4950151;28;20218;-72
2022/03/07 04:17:40;;;;;;;9.70;8.40;;;;;;;;;;4965410;28;20228;-74
2022/03/07 04:20:07;;;;;;;9.73;8.83;;;;;;;;;;4954616;28;20303;-73
2022/03/07 04:22:33;;;;;;;11.47;9.07;;;;;;;;;;4955069;28;20225;-72
2022/03/07 04:24:59;;;;;;;10.30;8.57;;;;;;;;;;4987845;28;20273;-73
2022/03/07 04:27:24;;;;;;;11.97;9.77;;;;;;;;;;4959871;28;20231;-73
2022/03/07 04:29:55;;;;;;;11.67;10.23;;;;;;;;;;4991802;28;20231;-70
2022/03/07 04:32:22;;;;;;;14.33;11.10;;;;;;;;;;4955253;28;20247;-71
2022/03/07 04:34:50;;;;;;;12.23;10.73;;;;;;;;;;4957364;28;20233;-71
2022/03/07 04:37:18;;;;;;;13.43;10.90;;;;;;;;;;4989222;28;20304;-70
2022/03/07 04:39:46;;;;;;;14.40;11.33;;;;;;;;;;4943308;28;20221;-72
2022/03/07 04:42:12;;;;;;;14.57;11.00;;;;;;;;;;4946583;28;20225;-71
2022/03/07 04:44:43;;;;;;;14.87;11.83;;;;;;;;;;4973939;28;20716;-71
2022/03/07 04:47:13;;;;;;;15.77;13.40;;;;;;;;;;4975526;28;20228;-71
2022/03/07 04:49:39;;;;;;;17.80;13.43;;;;;;;;;;4951065;28;20696;-71
2022/03/07 04:52:06;;;;;;;19.43;14.07;;;;;;;;;;5002510;28;20248;-73
2022/03/07 04:54:34;;;;;;;17.70;13.83;;;;;;;;;;4965924;28;20236;-72
2022/03/07 04:56:59;;;;;;;17.93;13.20;;;;;;;;;;4954579;28;20240;-71
2022/03/07 04:59:25;;;;;;;19.33;13.37;;;;;;;;;;4957082;28;20220;-71
2022/03/07 05:01:50;;;;;;;21.40;14.57;;;;;;;;;;4963646;28;20304;-72
2022/03/07 05:04:18;;;;;;;23.23;14.67;;;;;;;;;;4988039;28;20667;-74
2022/03/07 05:06:48;;;;;;;37.93;15.97;;;;;;;;;;4998255;28;20600;-72
2022/03/07 05:09:14;;;;;;;42.77;16.67;;;;;;;;;;4963327;28;20315;-74
2022/03/07 05:11:39;;;;;;;54.83;16.63;;;;;;;;;;4974015;28;20303;-71
2022/03/07 05:14:05;;;;;;;52.77;16.70;;;;;;;;;;4951178;28;20707;-72
2022/03/07 05:16:30;;;;;;;45.93;17.30;;;;;;;;;;4976010;28;20399;-71
2022/03/07 05:18:56;;;;;;;54.03;17.53;;;;;;;;;;4955273;28;20299;-72
2022/03/07 05:21:24;;;;;;;37.17;18.73;;;;;;;;;;4979579;28;20316;-72
2022/03/07 05:23:54;;;;;;;45.03;17.87;;;;;;;;;;4971343;28;20259;-73
2022/03/07 05:26:20;;;;;;;48.60;19.13;;;;;;;;;;4994366;28;20217;-72
2022/03/07 05:28:46;;;;;;;48.37;18.93;;;;;;;;;;4969116;28;20225;-72
2022/03/07 05:31:15;;;;;;;45.47;18.80;;;;;;;;;;4984239;28;20209;-72
2022/03/07 05:33:41;;;;;;;72.40;18.97;;;;;;;;;;4957067;28;20225;-72
2022/03/07 05:36:06;;;;;;;93.50;18.60;;;;;;;;;;4956733;28;20225;-71
2022/03/07 05:38:32;;;;;;;46.00;17.93;;;;;;;;;;4952613;28;20635;-74
2022/03/07 05:41:00;;;;;;;104.30;19.20;;;;;;;;;;4984126;28;20316;-71
2022/03/07 05:43:25;;;;;;;30.00;17.83;;;;;;;;;;4974019;28;20233;-71
2022/03/07 05:45:53;;;;;;;44.87;18.13;;;;;;;;;;4950410;28;20618;-72
2022/03/07 05:48:24;;;;;;;62.83;18.93;;;;;;;;;;4995553;28;20217;-73
2022/03/07 05:50:49;;;;;;;47.47;18.77;;;;;;;;;;4965769;28;20225;-73
2022/03/07 05:53:21;;;;;;;63.13;19.07;;;;;;;;;;5001297;28;20220;-72
2022/03/07 05:55:50;;;;;;;87.90;20.40;;;;;;;;;;4982042;28;20233;-72
2022/03/07 05:58:18;;;;;;;98.83;18.83;;;;;;;;;;4961244;28;20220;-72
2022/03/07 06:00:44;;;;;;;58.97;17.50;;;;;;;;;;4988680;28;20233;-73
2022/03/07 06:03:10;;;;;;;56.77;19.17;;;;;;;;;;4953952;28;20707;-71
2022/03/07 06:05:38;;;;;;;69.37;19.20;;;;;;;;;;4975137;28;20225;-72
2022/03/07 06:08:05;;;;;;;169.33;22.67;;;;;;;;;;4981799;28;20233;-72
2022/03/07 06:10:31;;;;;;;101.50;18.90;;;;;;;;;;4958637;28;20221;-71
2022/03/07 06:12:57;;;;;;;86.20;18.73;;;;;;;;;;4995321;28;20231;-72
2022/03/07 06:15:25;;;;;;;95.47;20.00;;;;;;;;;;5004013;28;20233;-72
2022/03/07 06:17:51;;;;;;;112.17;21.73;;;;;;;;;;4962195;28;20251;-72
2022/03/07 06:20:20;;;;;;;76.47;20.00;;;;;;;;;;4946920;28;20213;-74
2022/03/07 06:23:00;;;;;;;44.23;18.37;;;;;;;;;;4958894;28;20585;-73
2022/03/07 06:25:29;;;;;;;39.60;19.97;;;;;;;;;;4984054;28;20255;-72
2022/03/07 06:27:55;;;;;;;53.17;19.93;;;;;;;;;;4988547;28;20292;-72
2022/03/07 06:30:22;;;;;;;41.53;19.70;;;;;;;;;;4976409;28;20221;-76
2022/03/07 06:32:54;;;;;;;44.20;21.93;;;;;;;;;;4960291;28;20391;-72
2022/03/07 06:35:20;;;;;;;59.57;22.10;;;;;;;;;;4989850;28;20746;-72
2022/03/07 06:37:54;;;;;;;37.03;19.53;;;;;;;;;;5005135;28;20217;-74
2022/03/07 06:40:22;;;;;;;46.30;20.20;;;;;;;;;;4962673;28;20241;-72
2022/03/07 06:42:50;;;;;;;28.53;20.03;;;;;;;;;;4975390;28;20231;-71
2022/03/07 06:45:20;;;;;;;38.53;19.27;;;;;;;;;;4991485;28;20746;-72
2022/03/07 06:47:46;;;;;;;40.27;20.70;;;;;;;;;;4961758;28;20232;-71
2022/03/07 06:50:12;;;;;;;61.07;21.60;;;;;;;;;;5010031;28;20225;-73
2022/03/07 06:52:38;;;;;;;59.43;21.53;;;;;;;;;;4938194;28;20225;-73
2022/03/07 06:55:06;;;;;;;72.40;20.93;;;;;;;;;;4975243;28;20228;-71
2022/03/07 06:57:33;;;;;;;33.77;18.57;;;;;;;;;;4964801;28;20228;-71
2022/03/07 07:00:03;;;;;;;35.27;19.80;;;;;;;;;;4972581;28;20220;-71
2022/03/07 07:02:29;;;;;;;36.97;20.70;;;;;;;;;;4976623;28;20224;-71
2022/03/07 07:05:02;;;;;;;37.37;21.17;;;;;;;;;;4945377;28;20237;-72
2022/03/07 07:07:32;;;;;;;48.57;20.40;;;;;;;;;;4988027;28;20252;-71
2022/03/07 07:09:57;;;;;;;39.87;20.10;;;;;;;;;;4985155;28;20229;-72
2022/03/07 07:12:23;;;;;;;45.57;19.63;;;;;;;;;;4953213;28;20253;-75
2022/03/07 07:14:49;;;;;;;56.03;21.40;;;;;;;;;;4968319;28;20240;-74
2022/03/07 07:17:15;;;;;;;29.37;20.53;;;;;;;;;;4969316;28;20481;-72
2022/03/07 07:19:41;;;;;;;47.43;22.47;;;;;;;;;;4950975;28;20689;-73
2022/03/07 07:22:12;;;;;;;39.27;23.13;;;;;;;;;;4962056;28;20358;-72
2022/03/07 07:24:37;;;;;;;40.57;23.87;;;;;;;;;;4983109;28;20269;-72
2022/03/07 07:27:05;;;;;;;45.23;22.37;;;;;;;;;;4968165;28;20221;-71
2022/03/07 07:29:33;;;;;;;55.92;29.08;;;;;;;;;;4966322;28;20428;-71
2022/03/07 07:31:59;;;;;;;34.10;24.53;;;;;;;;;;4956760;28;20232;-72
2022/03/07 07:34:55;;;;;;;38.77;24.50;;;;;;;;;;4962314;28;20271;-73
2022/03/07 07:37:27;;;;;;;40.13;24.40;;;;;;;;;;5000332;28;20233;-73
2022/03/07 07:39:53;;;;;;;31.90;22.40;;;;;;;;;;5001912;28;20603;-73
2022/03/07 07:42:23;;;;;;;33.23;22.00;;;;;;;;;;4983436;28;20213;-73
2022/03/07 07:44:49;;;;;;;32.40;21.63;;;;;;;;;;4998200;28;20233;-72
2022/03/07 07:47:14;;;;;;;35.73;21.30;;;;;;;;;;4953689;28;20231;-74
2022/03/07 07:49:42;;;;;;;37.27;22.87;;;;;;;;;;4992081;28;20226;-74
2022/03/07 07:52:08;;;;;;;71.20;25.23;;;;;;;;;;4966219;28;20214;-72
2022/03/07 07:54:34;;;;;;;47.47;25.13;;;;;;;;;;4974732;28;20222;-73
2022/03/07 07:57:02;;;;;;;38.63;26.40;;;;;;;;;;4974603;28;20221;-72
2022/03/07 07:59:27;;;;;;;35.90;25.87;;;;;;;;;;4976105;28;20275;-73
2022/03/07 08:01:53;;;;;;;34.30;26.03;;;;;;;;;;4958525;28;20216;-74
2022/03/07 08:04:23;;;;;;;36.40;24.93;;;;;;;;;;4946006;28;20229;-71
2022/03/07 08:06:51;;;;;;;44.53;23.80;;;;;;;;;;4987368;28;20770;-73
2022/03/07 08:09:19;;;;;;;37.33;25.10;;;;;;;;;;4975011;28;20220;-72
2022/03/07 08:11:44;;;;;;;35.00;24.23;;;;;;;;;;4960496;28;20220;-71
2022/03/07 08:14:10;;;;;;;35.47;23.40;;;;;;;;;;4973939;28;20237;-72
2022/03/07 08:16:36;;;;;;;32.03;23.33;;;;;;;;;;4980936;28;20229;-74
2022/03/07 08:19:02;;;;;;;30.47;23.27;;;;;;;;;;4983180;28;20261;-74
2022/03/07 08:21:28;;;;;;;35.83;24.90;;;;;;;;;;4982702;28;20284;-72
2022/03/07 08:23:54;;;;;;;31.60;23.77;;;;;;;;;;4971940;28;20224;-71
2022/03/07 08:26:20;;;;;;;33.03;23.97;;;;;;;;;;4955497;28;20299;-71
2022/03/07 08:28:46;;;;;;;52.20;42.27;;;;;;;;;;4941630;28;20229;-73
2022/03/07 08:31:12;;;;;;;31.63;25.03;;;;;;;;;;4995963;28;20232;-73
2022/03/07 08:33:37;;;;;;;33.80;24.53;;;;;;;;;;4967992;28;20308;-72
2022/03/07 08:36:05;;;;;;;33.43;24.73;;;;;;;;;;4967691;28;20229;-75
2022/03/07 08:38:34;;;;;;;31.43;24.53;;;;;;;;;;5002067;28;20224;-71
2022/03/07 08:41:00;;;;;;;38.47;25.43;;;;;;;;;;4966199;28;20734;-72
2022/03/07 08:43:26;;;;;;;34.07;25.40;;;;;;;;;;4946601;28;20232;-71
2022/03/07 08:45:54;;;;;;;33.77;25.20;;;;;;;;;;4982299;28;20264;-73
2022/03/07 08:48:19;;;;;;;35.23;27.63;;;;;;;;;;4951910;28;20248;-71
2022/03/07 08:50:48;;;;;;;37.53;29.37;;;;;;;;;;4971713;28;20224;-72
2022/03/07 08:53:16;;;;;;;33.93;26.83;;;;;;;;;;4972531;28;20292;-74
2022/03/07 08:55:48;;;;;;;33.10;25.93;;;;;;;;;;4943892;28;20229;-72
2022/03/07 08:58:14;;;;;;;34.80;24.93;;;;;;;;;;4942903;28;20220;-73
2022/03/07 09:00:40;;;;;;;32.67;24.17;;;;;;;;;;4967594;28;20229;-71
2022/03/07 09:03:07;;;;;;;35.70;27.33;;;;;;;;;;4998263;28;20225;-72
2022/03/07 09:05:35;;;;;;;35.60;26.73;;;;;;;;;;5003706;28;20615;-73
2022/03/07 09:08:01;;;;;;;33.03;25.93;;;;;;;;;;4990201;28;20302;-71
2022/03/07 09:10:29;;;;;;;33.43;25.50;;;;;;;;;;4975144;28;20236;-74
2022/03/07 09:12:55;;;;;;;33.83;25.67;;;;;;;;;;4985463;28;20228;-72
2022/03/07 09:15:20;;;;;;;33.00;25.53;;;;;;;;;;4989360;28;20229;-71
2022/03/07 09:17:48;;;;;;;32.20;26.37;;;;;;;;;;4973911;28;20319;-72
2022/03/07 09:20:16;;;;;;;34.17;25.10;;;;;;;;;;4967540;28;20696;-72
2022/03/07 09:22:42;;;;;;;34.17;24.60;;;;;;;;;;4995665;28;20231;-72
2022/03/07 09:25:12;;;;;;;34.40;25.60;;;;;;;;;;4980149;28;20301;-72
2022/03/07 09:27:42;;;;;;;35.87;24.87;;;;;;;;;;4989615;28;20248;-74
2022/03/07 09:30:08;;;;;;;35.13;26.33;;;;;;;;;;4995493;28;20244;-77
2022/03/07 09:32:33;;;;;;;38.83;26.60;;;;;;;;;;4985071;28;20231;-73
2022/03/07 09:34:59;;;;;;;38.17;26.70;;;;;;;;;;4984770;28;20236;-72
2022/03/07 09:37:25;;;;;;;36.30;25.10;;;;;;;;;;4978332;28;20221;-73
2022/03/07 09:39:53;;;;;;;35.53;25.90;;;;;;;;;;4970838;28;20228;-72
2022/03/07 09:42:19;;;;;;;37.07;24.73;;;;;;;;;;4975906;28;20685;-72
2022/03/07 09:44:47;;;;;;;36.47;24.50;;;;;;;;;;4983249;28;20247;-71
2022/03/07 09:47:12;;;;;;;34.47;24.23;;;;;;;;;;4997276;28;20309;-74
2022/03/07 09:49:38;;;;;;;34.93;23.93;;;;;;;;;;4968433;28;20660;-73
2022/03/07 09:52:03;;;;;;;36.83;25.30;;;;;;;;;;4986503;28;20621;-71
2022/03/07 09:54:31;;;;;;;32.17;22.43;;;;;;;;;;4988335;28;20233;-72
2022/03/07 09:56:59;;;;;;;30.80;20.60;;;;;;;;;;4963672;28;20294;-74
2022/03/07 09:59:31;;;;;;;26.33;18.43;;;;;;;;;;4964474;28;20995;-74
2022/03/07 10:02:12;;;;;;;25.60;17.90;;;;;;;;;;4991572;28;20320;-73
2022/03/07 10:04:42;;;;;;;27.23;18.23;;;;;;;;;;4989189;28;20738;-72
2022/03/07 10:07:08;;;;;;;27.30;20.37;;;;;;;;;;4967298;28;20229;-71
2022/03/07 10:09:34;;;;;;;28.80;19.10;;;;;;;;;;4993391;28;20555;-72
2022/03/07 10:12:03;;;;;;;26.90;18.37;;;;;;;;;;4980471;28;20287;-72
2022/03/07 10:14:37;;;;;;;19.50;14.57;;;;;;;;;;4967826;28;20233;-72
2022/03/07 10:17:03;;;;;;;19.97;12.73;;;;;;;;;;4999127;28;20229;-71
2022/03/07 10:19:29;;;;;;;18.43;13.60;;;;;;;;;;4978282;28;20288;-73
2022/03/07 10:21:57;;;;;;;19.87;13.40;;;;;;;;;;4994783;28;20225;-74
2022/03/07 10:24:33;;;;;;;19.27;13.23;;;;;;;;;;4962460;28;20224;-71
2022/03/07 10:26:59;;;;;;;20.17;13.23;;;;;;;;;;4972454;28;20225;-73
2022/03/07 10:29:24;;;;;;;17.50;11.90;;;;;;;;;;4979072;28;20243;-75
2022/03/07 10:31:50;;;;;;;19.50;13.30;;;;;;;;;;4968767;28;20280;-73
2022/03/07 10:34:18;;;;;;;19.37;13.63;;;;;;;;;;4981015;28;20216;-72
2022/03/07 10:36:48;;;;;;;17.13;12.80;;;;;;;;;;4987027;28;20213;-73
2022/03/07 10:39:18;;;;;;;19.97;13.50;;;;;;;;;;4977107;28;20212;-71
2022/03/07 10:41:46;;;;;;;16.90;12.23;;;;;;;;;;4945438;28;20767;-71
2022/03/07 10:44:31;;;;;;;15.93;11.63;;;;;;;;;;4967552;28;20618;-73
2022/03/07 10:47:11;;;;;;;17.90;12.50;;;;;;;;;;4956226;28;20220;-72
2022/03/07 10:49:57;;;;;;;16.77;11.43;;;;;;;;;;4970954;28;20216;-71
2022/03/07 10:52:28;;;;;;;55.23;36.83;;;;;;;;;;4984803;28;20243;-74
2022/03/07 10:54:54;;;;;;;17.47;12.30;;;;;;;;;;4989338;28;20783;-73
2022/03/07 10:57:21;;;;;;;14.73;11.30;;;;;;;;;;4993486;28;20305;-71
2022/03/07 10:59:47;;;;;;;15.37;11.00;;;;;;;;;;4958604;28;20217;-72
2022/03/07 11:02:14;;;;;;;13.63;10.23;;;;;;;;;;4986836;28;20220;-72
2022/03/07 11:04:41;;;;;;;10.50;7.73;;;;;;;;;;4989114;28;20233;-73
2022/03/07 11:07:08;;;;;;;11.70;8.23;;;;;;;;;;4990242;28;20221;-72
2022/03/07 11:09:36;;;;;;;11.80;7.77;;;;;;;;;;4972845;28;20573;-71
2022/03/07 11:12:03;;;;;;;11.80;9.23;;;;;;;;;;4952407;28;20371;-71
2022/03/07 11:14:28;;;;;;;12.73;9.13;;;;;;;;;;4974360;28;20247;-71
2022/03/07 11:16:56;;;;;;;17.73;12.80;;;;;;;;;;4976645;28;20229;-72
2022/03/07 11:19:25;;;;;;;15.00;12.17;;;;;;;;;;4990946;28;20752;-71
2022/03/07 11:21:52;;;;;;;15.73;11.37;;;;;;;;;;4952137;28;20304;-71
2022/03/07 11:24:23;;;;;;;14.17;10.40;;;;;;;;;;4975966;28;20275;-73
2022/03/07 11:26:54;;;;;;;12.37;9.43;;;;;;;;;;4957168;28;20762;-73
2022/03/07 11:29:30;;;;;;;13.37;9.97;;;;;;;;;;4965678;28;20225;-73
2022/03/07 11:32:06;;;;;;;12.57;9.77;;;;;;;;;;4970017;28;20275;-73
2022/03/07 11:34:34;;;;;;;14.40;10.20;;;;;;;;;;4963329;28;20298;-73
2022/03/07 11:37:03;;;;;;;13.67;10.43;;;;;;;;;;4991781;28;20213;-74
2022/03/07 11:39:32;;;;;;;15.60;11.80;;;;;;;;;;4960875;28;20314;-73
2022/03/07 11:42:34;;;;;;;14.10;11.67;;;;;;;;;;4959786;28;20232;-74
2022/03/07 11:45:04;;;;;;;15.57;11.10;;;;;;;;;;4954486;28;20244;-74
2022/03/07 11:47:35;;;;;;;14.40;10.80;;;;;;;;;;4958038;28;20229;-73
2022/03/07 11:50:01;;;;;;;15.33;10.90;;;;;;;;;;4969437;28;20236;-74
2022/03/07 11:52:31;;;;;;;11.93;9.90;;;;;;;;;;4989013;28;20248;-75
2022/03/07 11:55:07;;;;;;;13.57;10.13;;;;;;;;;;4967735;28;20236;-74
2022/03/07 11:57:33;;;;;;;11.80;9.80;;;;;;;;;;4970402;28;20755;-73
2022/03/07 12:00:22;;;;;;;11.07;8.30;;;;;;;;;;4977694;28;20305;-74
2022/03/07 12:02:52;;;;;;;11.63;8.13;;;;;;;;;;4965684;28;20276;-74
2022/03/07 12:05:22;;;;;;;8.83;7.50;;;;;;;;;;4986561;28;20251;-73
2022/03/07 12:07:51;;;;;;;11.53;8.23;;;;;;;;;;4966730;28;20236;-74
2022/03/07 12:10:16;;;;;;;12.17;8.90;;;;;;;;;;4984325;28;20622;-73
2022/03/07 12:12:44;;;;;;;10.87;8.27;;;;;;;;;;4983953;28;20250;-74
2022/03/07 12:15:13;;;;;;;10.87;9.10;;;;;;;;;;4966861;28;20553;-74
2022/03/07 12:17:38;;;;;;;8.60;7.07;;;;;;;;;;4954997;28;20225;-74
2022/03/07 12:20:09;;;;;;;10.10;6.87;;;;;;;;;;4982347;28;20751;-74
2022/03/07 12:22:38;;;;;;;7.53;6.73;;;;;;;;;;5002607;28;20234;-71
2022/03/07 12:25:09;;;;;;;8.10;6.77;;;;;;;;;;4985578;28;20712;-72
2022/03/07 12:27:38;;;;;;;9.70;6.73;;;;;;;;;;4989959;28;20225;-74
2022/03/07 12:30:08;;;;;;;9.03;5.90;;;;;;;;;;5000647;28;20221;-73
2022/03/07 12:32:35;;;;;;;7.37;5.27;;;;;;;;;;4969880;28;20244;-72
2022/03/07 12:35:03;;;;;;;5.70;4.70;;;;;;;;;;4958624;28;20233;-73
2022/03/07 12:37:32;;;;;;;6.23;4.47;;;;;;;;;;4968968;28;20252;-74
2022/03/07 12:40:03;;;;;;;5.73;4.20;;;;;;;;;;4998680;28;20225;-72
2022/03/07 12:42:32;;;;;;;5.10;4.00;;;;;;;;;;4963928;28;20221;-72
2022/03/07 12:45:00;;;;;;;7.40;4.83;;;;;;;;;;4966838;28;20252;-73
2022/03/07 12:47:32;;;;;;;6.80;4.70;;;;;;;;;;4958235;28;20225;-72
2022/03/07 12:49:58;;;;;;;6.73;4.60;;;;;;;;;;4956304;28;20217;-72
2022/03/07 12:52:28;;;;;;;9.47;6.90;;;;;;;;;;5004218;28;20229;-71
2022/03/07 12:54:56;;;;;;;11.63;8.47;;;;;;;;;;4970726;28;20694;-71
2022/03/07 12:57:22;;;;;;;9.87;7.93;;;;;;;;;;4970536;28;20300;-73
2022/03/07 12:59:49;;;;;;;10.97;8.23;;;;;;;;;;4971950;28;20317;-71
2022/03/07 13:02:15;;;;;;;9.83;7.70;;;;;;;;;;4971229;28;20216;-71
2022/03/07 13:04:41;;;;;;;12.23;8.70;;;;;;;;;;4987665;28;20239;-72
2022/03/07 13:07:15;;;;;;;9.23;7.73;;;;;;;;;;4991629;28;20217;-73
2022/03/07 13:09:42;;;;;;;9.00;6.60;;;;;;;;;;4976675;28;20221;-73
2022/03/07 13:12:10;;;;;;;6.07;4.83;;;;;;;;;;4981379;28;20611;-73
2022/03/07 13:14:37;;;;;;;6.80;5.30;;;;;;;;;;4991244;28;20303;-73
2022/03/07 13:17:09;;;;;;;4.70;3.60;;;;;;;;;;4983806;28;20279;-73
2022/03/07 13:19:35;;;;;;;3.20;2.70;;;;;;;;;;4997930;28;20227;-74
2022/03/07 13:22:01;;;;;;;2.77;2.40;;;;;;;;;;4967398;28;20595;-72
2022/03/07 13:24:28;;;;;;;2.30;2.10;;;;;;;;;;4984059;28;20229;-74
2022/03/07 13:27:03;;;;;;;3.37;2.00;;;;;;;;;;4998261;28;20224;-76
2022/03/07 13:29:30;;;;;;;2.70;2.00;;;;;;;;;;4981378;28;20704;-72
2022/03/07 13:32:01;;;;;;;2.73;2.30;;;;;;;;;;4969429;28;20239;-72
2022/03/07 13:34:27;;;;;;;2.57;2.37;;;;;;;;;;4979889;28;20225;-73
2022/03/07 13:36:56;;;;;;;3.70;2.83;;;;;;;;;;4961727;28;20223;-72
2022/03/07 13:39:29;;;;;;;4.80;2.60;;;;;;;;;;4979600;28;20224;-74
2022/03/07 13:41:59;;;;;;;2.93;2.20;;;;;;;;;;4958109;28;20221;-73
2022/03/07 13:44:25;;;;;;;3.90;2.60;;;;;;;;;;4957528;28;20315;-74
2022/03/07 13:46:54;;;;;;;3.97;3.10;;;;;;;;;;4985436;28;20708;-73
2022/03/07 13:49:24;;;;;;;3.50;2.60;;;;;;;;;;4983094;28;20231;-72
2022/03/07 13:51:50;;;;;;;3.07;2.43;;;;;;;;;;4991617;28;20217;-72
2022/03/07 13:54:18;;;;;;;3.37;2.33;;;;;;;;;;4979256;28;20767;-74
2022/03/07 13:56:43;;;;;;;2.87;1.97;;;;;;;;;;4981934;28;20244;-72
2022/03/07 13:59:13;;;;;;;1.63;1.37;;;;;;;;;;4971141;28;20225;-73
2022/03/07 14:01:43;;;;;;;3.80;2.90;;;;;;;;;;4972600;28;20359;-75
2022/03/07 14:04:12;;;;;;;3.37;2.60;;;;;;;;;;4970100;28;20339;-74
2022/03/07 14:06:37;;;;;;;3.20;2.10;;;;;;;;;;4979079;28;20244;-73
2022/03/07 14:09:10;;;;;;;1.60;1.37;;;;;;;;;;4990594;28;20221;-72
2022/03/07 14:11:38;;;;;;;3.23;2.33;;;;;;;;;;4969824;28;20263;-74
2022/03/07 14:14:07;;;;;;;3.13;2.80;;;;;;;;;;4979549;28;20251;-73
2022/03/07 14:16:39;;;;;;;4.67;2.93;;;;;;;;;;4975273;28;20256;-74
2022/03/07 14:19:05;;;;;;;2.47;2.27;;;;;;;;;;4974429;28;20217;-73
2022/03/07 14:21:32;;;;;;;3.43;2.43;;;;;;;;;;4990357;28;20304;-74
2022/03/07 14:23:59;;;;;;;5.50;2.90;;;;;;;;;;4972904;28;20312;-73
2022/03/07 14:26:25;;;;;;;4.07;3.10;;;;;;;;;;4995304;28;20229;-72
2022/03/07 14:28:53;;;;;;;4.30;3.90;;;;;;;;;;4983497;28;20228;-73
2022/03/07 14:31:20;;;;;;;5.17;3.90;;;;;;;;;;4970652;28;20230;-75
2022/03/07 14:33:47;;;;;;;5.10;4.27;;;;;;;;;;4966663;28;21121;-72